createdAt,value
2022-09-30T00:01:40.979Z,1.60
2022-09-30T00:03:43.534Z,1.45
2022-09-30T00:05:45.111Z,1.80
2022-09-30T00:07:46.715Z,1.60
2022-09-30T00:09:48.649Z,1.30
2022-09-30T00:11:50.770Z,1.58
2022-09-30T00:13:53.451Z,1.70
2022-09-30T00:15:55.141Z,1.40
2022-09-30T00:17:59.484Z,1.45
2022-09-30T00:20:01.253Z,1.60
2022-09-30T00:22:02.848Z,1.50
2022-09-30T00:24:05.590Z,1.38
2022-09-30T00:26:12.771Z,1.77
2022-09-30T00:28:15.284Z,1.40
2022-09-30T00:30:17.050Z,1.30
2022-09-30T00:32:18.680Z,1.30
2022-09-30T00:34:20.581Z,1.35
2022-09-30T00:36:22.204Z,1.60
2022-09-30T00:38:23.940Z,1.60
2022-09-30T00:40:26.007Z,1.52
2022-09-30T00:42:29.906Z,1.55
2022-09-30T00:44:51.309Z,1.48
2022-09-30T00:46:55.602Z,1.50
2022-09-30T00:48:59.971Z,1.48
2022-09-30T00:51:04.349Z,1.42
2022-09-30T00:53:16.388Z,1.27
2022-09-30T00:55:48.239Z,1.30
2022-09-30T00:57:50.139Z,1.55
2022-09-30T00:59:52.295Z,1.50
2022-09-30T01:01:54.796Z,1.30
2022-09-30T01:04:11.748Z,1.40
2022-09-30T01:06:13.602Z,1.30
2022-09-30T01:08:18.963Z,1.50
2022-09-30T01:10:20.583Z,1.45
2022-09-30T01:12:25.011Z,1.13
2022-09-30T01:14:28.613Z,1.30
2022-09-30T01:16:33.128Z,1.27
2022-09-30T01:18:58.004Z,1.30
2022-09-30T01:21:27.697Z,1.38
2022-09-30T01:23:47.339Z,1.20
2022-09-30T01:26:25.938Z,1.40
2022-09-30T01:28:40.558Z,1.23
2022-09-30T01:30:48.143Z,1.42
2022-09-30T01:33:03.927Z,1.98
2022-09-30T01:35:30.496Z,1.80
2022-09-30T01:38:23.584Z,2.03
2022-09-30T01:40:33.263Z,2.00
2022-09-30T01:42:55.896Z,1.88
2022-09-30T01:45:12.336Z,1.85
2022-09-30T01:47:30.639Z,1.63
2022-09-30T01:50:00.653Z,1.85
2022-09-30T01:52:16.221Z,1.67
2022-09-30T01:54:21.130Z,2.10
2022-09-30T01:56:34.178Z,1.98
2022-09-30T01:58:53.119Z,1.80
2022-09-30T02:00:59.678Z,1.73
2022-09-30T02:03:17.715Z,1.48
2022-09-30T02:05:48.752Z,1.70
2022-09-30T02:07:56.683Z,1.60
2022-09-30T02:10:06.152Z,1.85
2022-09-30T02:12:13.179Z,1.63
2022-09-30T02:14:26.111Z,1.42
2022-09-30T02:16:50.957Z,1.60
2022-09-30T02:18:57.304Z,1.80
2022-09-30T02:21:03.016Z,1.70
2022-09-30T02:23:21.050Z,1.40
2022-09-30T02:25:36.038Z,1.70
2022-09-30T02:27:44.970Z,1.27
2022-09-30T02:29:51.345Z,1.60
2022-09-30T02:31:58.136Z,1.42
2022-09-30T02:34:14.599Z,1.60
2022-09-30T02:36:27.732Z,1.65
2022-09-30T02:38:37.419Z,1.63
2022-09-30T02:40:44.339Z,2.03
2022-09-30T02:42:46.611Z,1.85
2022-09-30T02:44:51.862Z,1.60
2022-09-30T02:47:17.503Z,1.50
2022-09-30T02:49:38.139Z,1.70
2022-09-30T02:51:53.070Z,1.60
2022-09-30T02:54:07.343Z,1.42
2022-09-30T02:56:26.055Z,1.40
2022-09-30T02:58:29.260Z,1.50
2022-09-30T03:00:31.340Z,1.55
2022-09-30T03:02:33.212Z,1.50
2022-09-30T03:04:37.073Z,1.67
2022-09-30T03:06:39.279Z,1.75
2022-09-30T03:08:41.114Z,1.48
2022-09-30T03:10:43.836Z,1.65
2022-09-30T03:13:07.938Z,1.58
2022-09-30T03:15:18.768Z,1.55
2022-09-30T03:17:30.077Z,1.73
2022-09-30T03:19:31.627Z,1.40
2022-09-30T03:21:54.249Z,2.10
2022-09-30T03:24:23.727Z,1.55
2022-09-30T03:26:41.365Z,1.98
2022-09-30T03:28:42.952Z,1.48
2022-09-30T03:31:12.174Z,1.60
2022-09-30T03:33:56.160Z,1.67
2022-09-30T03:36:03.429Z,1.40
2022-09-30T03:38:38.319Z,1.63
2022-09-30T03:40:51.248Z,1.35
2022-09-30T03:43:14.285Z,1.77
2022-09-30T03:45:27.826Z,1.85
2022-09-30T03:47:33.621Z,1.88
2022-09-30T03:49:39.911Z,1.58
2022-09-30T03:51:42.215Z,1.55
2022-09-30T03:53:46.564Z,1.60
2022-09-30T03:55:50.968Z,1.80
2022-09-30T03:57:54.289Z,1.80
2022-09-30T03:59:59.677Z,1.60
2022-09-30T04:02:02.513Z,1.60
2022-09-30T04:04:04.164Z,1.63
2022-09-30T04:06:08.497Z,1.65
2022-09-30T04:08:10.709Z,1.42
2022-09-30T04:10:12.490Z,1.42
2022-09-30T04:12:14.295Z,1.60
2022-09-30T04:14:15.895Z,1.88
2022-09-30T04:16:17.596Z,1.70
2022-09-30T04:18:19.256Z,1.60
2022-09-30T04:20:20.852Z,1.60
2022-09-30T04:22:26.309Z,1.40
2022-09-30T04:24:28.120Z,1.48
2022-09-30T04:26:29.758Z,1.50
2022-09-30T04:28:32.373Z,1.70
2022-09-30T04:30:34.027Z,1.92
2022-09-30T04:32:35.605Z,1.92
2022-09-30T04:34:37.542Z,1.70
2022-09-30T04:36:39.577Z,1.65
2022-09-30T04:38:41.226Z,1.80
2022-09-30T04:40:42.837Z,1.70
2022-09-30T04:42:44.528Z,1.95
2022-09-30T04:44:46.139Z,2.08
2022-09-30T04:46:48.146Z,2.40
2022-09-30T04:48:50.151Z,2.03
2022-09-30T04:50:51.836Z,2.40
2022-09-30T04:52:56.156Z,1.73
2022-09-30T04:54:58.681Z,2.20
2022-09-30T04:57:00.301Z,2.20
2022-09-30T04:59:01.927Z,1.80
2022-09-30T05:01:05.735Z,2.33
2022-09-30T05:03:07.390Z,2.22
2022-09-30T05:05:09.412Z,2.33
2022-09-30T05:07:11.146Z,2.10
2022-09-30T05:09:12.764Z,2.25
2022-09-30T05:11:17.829Z,2.22
2022-09-30T05:13:19.415Z,2.00
2022-09-30T05:15:21.057Z,2.53
2022-09-30T05:17:22.716Z,2.17
2022-09-30T05:19:24.485Z,2.17
2022-09-30T05:21:26.123Z,2.38
2022-09-30T05:23:30.309Z,2.45
2022-09-30T05:25:31.976Z,1.90
2022-09-30T05:27:33.606Z,2.40
2022-09-30T05:29:35.444Z,2.70
2022-09-30T05:31:37.120Z,2.90
2022-09-30T05:33:38.979Z,2.55
2022-09-30T05:35:41.633Z,2.40
2022-09-30T05:37:43.295Z,2.70
2022-09-30T05:39:44.891Z,2.50
2022-09-30T05:41:46.489Z,2.10
2022-09-30T05:43:48.343Z,2.67
2022-09-30T05:45:54.881Z,2.58
2022-09-30T05:47:57.021Z,2.92
2022-09-30T05:49:58.643Z,2.60
2022-09-30T05:52:00.541Z,2.65
2022-09-30T05:54:02.264Z,2.83
2022-09-30T05:56:04.562Z,2.17
2022-09-30T05:58:06.149Z,2.53
2022-09-30T06:00:08.292Z,2.15
2022-09-30T06:02:10.776Z,2.75
2022-09-30T06:04:12.524Z,2.50
2022-09-30T06:06:15.569Z,2.38
2022-09-30T06:08:17.260Z,2.22
2022-09-30T06:10:18.913Z,2.80
2022-09-30T06:12:20.536Z,2.42
2022-09-30T06:14:22.838Z,2.53
2022-09-30T06:16:25.718Z,2.15
2022-09-30T06:18:28.847Z,2.05
2022-09-30T06:20:31.119Z,2.30
2022-09-30T06:22:35.810Z,2.42
2022-09-30T06:24:37.534Z,2.40
2022-09-30T06:26:39.551Z,2.42
2022-09-30T06:28:41.615Z,2.50
2022-09-30T06:30:44.752Z,2.03
2022-09-30T06:32:46.356Z,2.20
2022-09-30T06:34:48.051Z,1.85
2022-09-30T06:36:49.691Z,2.10
2022-09-30T06:38:52.880Z,2.20
2022-09-30T06:40:56.594Z,2.08
2022-09-30T06:42:59.733Z,2.08
2022-09-30T06:45:01.421Z,2.30
2022-09-30T06:47:03.390Z,2.13
2022-09-30T06:49:13.516Z,1.92
2022-09-30T06:51:15.562Z,2.35
2022-09-30T06:53:17.223Z,2.50
2022-09-30T06:55:19.100Z,2.10
2022-09-30T06:57:22.844Z,1.90
2022-09-30T06:59:24.893Z,1.77
2022-09-30T07:01:27.685Z,2.38
2022-09-30T07:03:32.272Z,2.15
2022-09-30T07:05:33.906Z,2.42
2022-09-30T07:07:36.645Z,2.10
2022-09-30T07:09:38.638Z,2.08
2022-09-30T07:11:40.824Z,2.45
2022-09-30T07:13:45.839Z,2.00
2022-09-30T07:15:47.519Z,2.03
2022-09-30T07:17:53.444Z,2.17
2022-09-30T07:19:55.468Z,2.00
2022-09-30T07:22:18.068Z,2.25
2022-09-30T07:24:19.894Z,2.20
2022-09-30T07:26:23.649Z,2.00
2022-09-30T07:28:29.571Z,2.42
2022-09-30T07:30:31.179Z,2.10
2022-09-30T07:32:32.921Z,2.15
2022-09-30T07:34:35.921Z,2.33
2022-09-30T07:36:39.316Z,2.03
2022-09-30T07:38:42.282Z,1.63
2022-09-30T07:41:12.630Z,2.35
2022-09-30T07:43:17.043Z,2.42
2022-09-30T07:45:19.342Z,2.20
2022-09-30T07:47:21.068Z,2.20
2022-09-30T07:49:25.911Z,2.10
2022-09-30T07:51:39.700Z,2.20
2022-09-30T07:53:43.529Z,2.30
2022-09-30T07:55:45.119Z,2.17
2022-09-30T07:57:46.763Z,2.67
2022-09-30T07:59:48.381Z,2.63
2022-09-30T08:01:50.819Z,2.55
2022-09-30T08:03:58.417Z,2.17
2022-09-30T08:06:09.812Z,2.42
2022-09-30T08:08:15.996Z,2.35
2022-09-30T08:12:25.244Z,3.05
2022-09-30T08:14:27.955Z,2.35
2022-09-30T08:16:29.936Z,2.50
2022-09-30T08:18:32.041Z,2.17
2022-09-30T08:20:33.757Z,2.15
2022-09-30T08:22:35.398Z,2.13
2022-09-30T08:24:37.026Z,2.40
2022-09-30T08:26:39.287Z,2.70
2022-09-30T08:28:41.358Z,3.00
2022-09-30T08:30:43.524Z,2.70
2022-09-30T08:32:45.164Z,2.97
2022-09-30T08:34:46.747Z,3.53
2022-09-30T08:36:48.447Z,2.72
2022-09-30T08:38:50.951Z,2.95
2022-09-30T08:41:09.419Z,2.90
2022-09-30T08:43:37.529Z,3.60
2022-09-30T08:45:41.979Z,3.05
2022-09-30T08:47:46.820Z,3.10
2022-09-30T08:50:16.736Z,3.03
2022-09-30T08:52:30.507Z,3.47
2022-09-30T08:54:43.215Z,2.78
2022-09-30T08:56:45.777Z,3.05
2022-09-30T08:58:50.222Z,3.08
2022-09-30T09:00:57.221Z,3.00
2022-09-30T09:03:03.065Z,2.80
2022-09-30T09:05:07.529Z,2.45
2022-09-30T09:07:31.377Z,3.08
2022-09-30T09:10:00.372Z,3.00
2022-09-30T09:12:07.354Z,2.95
2022-09-30T09:14:36.360Z,3.05
2022-09-30T09:17:24.823Z,2.65
2022-09-30T09:19:36.514Z,2.70
2022-09-30T09:22:01.687Z,2.85
2022-09-30T09:24:05.740Z,3.03
2022-09-30T09:26:12.303Z,2.85
2022-09-30T09:28:37.882Z,2.65
2022-09-30T09:30:57.903Z,2.50
2022-09-30T09:33:22.798Z,2.47
2022-09-30T09:35:24.354Z,2.60
2022-09-30T09:37:51.329Z,2.40
2022-09-30T09:40:23.834Z,2.88
2022-09-30T09:42:25.389Z,2.40
2022-09-30T09:44:39.637Z,2.30
2022-09-30T09:46:44.474Z,2.70
2022-09-30T09:48:46.790Z,2.65
2022-09-30T09:51:04.004Z,2.38
2022-09-30T09:53:32.689Z,2.40
2022-09-30T09:55:35.213Z,2.70
2022-09-30T09:57:37.628Z,2.65
2022-09-30T10:02:00.600Z,2.70
2022-09-30T10:04:11.828Z,2.35
2022-09-30T10:06:13.416Z,2.33
2022-09-30T10:08:22.833Z,2.10
2022-09-30T10:10:24.637Z,1.92
2022-09-30T10:12:28.449Z,1.95
2022-09-30T10:14:30.124Z,2.10
2022-09-30T10:16:37.116Z,2.10
2022-09-30T10:18:45.615Z,2.92
2022-09-30T10:20:56.636Z,2.05
2022-09-30T10:23:36.328Z,2.03
2022-09-30T10:25:37.958Z,2.58
2022-09-30T10:27:58.012Z,2.33
2022-09-30T10:29:59.612Z,2.20
2022-09-30T10:32:04.371Z,2.10
2022-09-30T10:34:33.813Z,2.00
2022-09-30T10:36:37.173Z,2.25
2022-09-30T10:38:48.264Z,2.20
2022-09-30T10:42:53.684Z,2.22
2022-09-30T10:45:10.031Z,1.98
2022-09-30T10:47:20.314Z,1.83
2022-09-30T10:49:33.028Z,2.22
2022-09-30T10:51:36.209Z,2.08
2022-09-30T10:53:43.893Z,1.85
2022-09-30T10:55:46.433Z,2.20
2022-09-30T10:57:51.108Z,2.33
2022-09-30T11:00:15.257Z,2.33
2022-09-30T11:02:41.663Z,1.92
2022-09-30T11:04:54.128Z,2.17
2022-09-30T11:07:31.310Z,2.10
2022-09-30T11:09:50.327Z,2.58
2022-09-30T11:12:22.275Z,2.40
2022-09-30T11:14:29.683Z,2.13
2022-09-30T11:16:55.864Z,2.05
2022-09-30T11:19:09.482Z,2.10
2022-09-30T11:21:18.387Z,1.88
2022-09-30T11:23:27.802Z,1.90
2022-09-30T11:25:38.343Z,2.00
2022-09-30T11:28:01.609Z,1.90
2022-09-30T11:30:15.589Z,1.98
2022-09-30T11:32:32.093Z,2.13
2022-09-30T11:35:06.393Z,1.80
2022-09-30T11:37:45.021Z,1.60
2022-09-30T11:40:24.761Z,1.70
2022-09-30T11:42:54.864Z,1.98
2022-09-30T11:45:31.416Z,1.90
2022-09-30T11:47:51.317Z,1.98
2022-09-30T11:50:23.233Z,2.05
2022-09-30T11:52:31.091Z,1.75
2022-09-30T11:54:44.721Z,1.85
2022-09-30T11:56:59.244Z,1.85
2022-09-30T11:59:06.275Z,2.00
2022-09-30T12:01:21.709Z,1.67
2022-09-30T12:03:42.173Z,1.70
2022-09-30T12:05:48.198Z,1.90
2022-09-30T12:08:09.185Z,2.17
2022-09-30T12:10:27.865Z,2.00
2022-09-30T12:12:29.592Z,1.90
2022-09-30T12:14:34.349Z,2.10
2022-09-30T12:16:38.633Z,1.95
2022-09-30T12:18:49.642Z,2.17
2022-09-30T12:20:58.748Z,1.90
2022-09-30T12:23:05.673Z,1.85
2022-09-30T12:25:18.942Z,1.90
2022-09-30T12:28:01.506Z,1.95
2022-09-30T12:30:18.648Z,1.50
2022-09-30T12:32:36.630Z,1.63
2022-09-30T12:34:38.323Z,1.85
2022-09-30T12:37:05.077Z,1.83
2022-09-30T12:39:24.159Z,2.08
2022-09-30T12:41:51.035Z,1.50
2022-09-30T12:44:25.076Z,1.83
2022-09-30T12:46:48.428Z,1.50
2022-09-30T12:49:01.613Z,1.55
2022-09-30T12:51:04.551Z,1.42
2022-09-30T12:53:29.276Z,1.50
2022-09-30T12:55:40.008Z,1.70
2022-09-30T12:57:43.139Z,1.55
2022-09-30T13:00:02.310Z,1.40
2022-09-30T13:02:06.548Z,1.33
2022-09-30T13:04:08.611Z,1.40
2022-09-30T13:06:10.489Z,1.20
2022-09-30T13:08:25.102Z,1.30
2022-09-30T13:10:30.638Z,1.55
2022-09-30T13:12:44.283Z,1.27
2022-09-30T13:14:45.987Z,1.42
2022-09-30T13:17:08.557Z,1.55
2022-09-30T13:19:21.261Z,2.13
2022-09-30T13:21:23.730Z,1.83
2022-09-30T13:23:45.557Z,1.73
2022-09-30T13:25:54.365Z,1.65
2022-09-30T13:28:37.596Z,1.60
2022-09-30T13:30:40.333Z,1.30
2022-09-30T13:32:57.352Z,1.50
2022-09-30T13:34:59.456Z,1.63
2022-09-30T13:37:03.895Z,1.42
2022-09-30T13:39:25.403Z,1.20
2022-09-30T13:41:27.482Z,1.40
2022-09-30T13:43:39.929Z,1.52
2022-09-30T13:45:44.385Z,1.00
2022-09-30T13:47:50.589Z,1.20
2022-09-30T13:50:13.999Z,1.65
2022-09-30T13:52:23.431Z,1.40
2022-09-30T13:54:35.755Z,1.17
2022-09-30T13:56:40.748Z,1.10
2022-09-30T13:59:21.420Z,1.10
2022-09-30T14:01:42.139Z,1.00
2022-09-30T14:04:04.493Z,1.08
2022-09-30T14:06:41.973Z,0.98
2022-09-30T14:09:17.624Z,0.85
2022-09-30T14:11:43.996Z,1.00
2022-09-30T14:13:58.325Z,1.10
2022-09-30T14:16:32.317Z,1.10
2022-09-30T14:18:47.138Z,1.38
2022-09-30T14:20:59.086Z,1.00
2022-09-30T14:23:00.815Z,1.00
2022-09-30T14:25:03.541Z,1.10
2022-09-30T14:27:19.405Z,1.50
2022-09-30T14:29:26.895Z,1.00
2022-09-30T14:31:29.369Z,0.93
2022-09-30T14:33:31.648Z,1.05
2022-09-30T14:35:35.599Z,1.02
2022-09-30T14:37:45.579Z,1.00
2022-09-30T14:39:48.031Z,1.05
2022-09-30T14:41:59.280Z,0.95
2022-09-30T14:44:08.104Z,0.95
2022-09-30T14:46:31.417Z,0.95
2022-09-30T14:48:38.470Z,1.10
2022-09-30T14:51:01.164Z,0.90
2022-09-30T14:53:03.518Z,0.90
2022-09-30T14:55:17.490Z,0.85
2022-09-30T14:57:19.586Z,1.10
2022-09-30T14:59:26.940Z,0.95
2022-09-30T15:01:33.933Z,1.05
2022-09-30T15:03:39.869Z,0.90
2022-09-30T15:05:41.751Z,1.00
2022-09-30T15:07:43.368Z,0.85
2022-09-30T15:09:50.132Z,0.90
2022-09-30T15:11:51.908Z,0.90
2022-09-30T15:14:00.408Z,1.25
2022-09-30T15:16:02.108Z,1.10
2022-09-30T15:18:22.632Z,1.00
2022-09-30T15:20:24.196Z,1.40
2022-09-30T15:22:28.876Z,1.10
2022-09-30T15:24:32.573Z,1.10
2022-09-30T15:26:34.983Z,1.10
2022-09-30T15:28:37.602Z,1.52
2022-09-30T15:30:40.217Z,0.88
2022-09-30T15:32:43.020Z,1.05
2022-09-30T15:34:45.899Z,1.08
2022-09-30T15:36:51.391Z,0.90
2022-09-30T15:38:53.364Z,1.00
2022-09-30T15:41:10.232Z,1.60
2022-09-30T15:43:16.365Z,5.70
2022-09-30T15:45:18.541Z,9.30
2022-09-30T15:47:20.328Z,11.68
2022-09-30T15:49:52.892Z,8.80
2022-09-30T15:51:54.673Z,10.75
2022-09-30T15:54:01.382Z,11.02
2022-09-30T15:56:23.472Z,9.60
2022-09-30T15:58:37.972Z,8.88
2022-09-30T16:00:41.807Z,9.55
2022-09-30T16:02:43.519Z,7.78
2022-09-30T16:04:51.848Z,4.75
2022-09-30T16:07:10.871Z,3.10
2022-09-30T16:09:21.120Z,1.95
2022-09-30T16:11:29.977Z,2.10
2022-09-30T16:13:32.306Z,1.90
2022-09-30T16:15:40.420Z,2.25
2022-09-30T16:17:48.156Z,2.47
2022-09-30T16:20:20.202Z,2.90
2022-09-30T16:22:40.368Z,3.78
2022-09-30T16:24:42.294Z,3.08
2022-09-30T16:26:45.328Z,3.17
2022-09-30T16:28:47.628Z,2.80
2022-09-30T16:30:51.045Z,3.35
2022-09-30T16:32:58.183Z,2.17
2022-09-30T16:35:00.155Z,2.63
2022-09-30T16:37:11.948Z,2.85
2022-09-30T16:39:15.682Z,2.72
2022-09-30T16:41:17.291Z,3.05
2022-09-30T16:43:18.887Z,3.20
2022-09-30T16:45:21.560Z,2.60
2022-09-30T16:47:23.220Z,2.97
2022-09-30T16:49:24.816Z,2.63
2022-09-30T16:51:26.979Z,2.95
2022-09-30T16:53:28.566Z,2.90
2022-09-30T16:55:30.721Z,3.17
2022-09-30T16:57:32.308Z,2.40
2022-09-30T16:59:33.979Z,3.17
2022-09-30T17:01:35.581Z,2.78
2022-09-30T17:03:37.184Z,3.15
2022-09-30T17:05:40.726Z,2.50
2022-09-30T17:07:43.829Z,3.35
2022-09-30T17:09:45.433Z,2.60
2022-09-30T17:11:47.056Z,3.28
2022-09-30T17:13:48.654Z,2.38
2022-09-30T17:15:51.587Z,2.72
2022-09-30T17:17:53.357Z,2.47
2022-09-30T17:19:55.331Z,2.58
2022-09-30T17:21:56.952Z,2.75
2022-09-30T17:23:58.942Z,2.58
2022-09-30T17:26:03.492Z,2.50
2022-09-30T17:28:06.167Z,2.92
2022-09-30T17:30:11.476Z,3.30
2022-09-30T17:32:13.072Z,3.33
2022-09-30T17:34:14.657Z,2.35
2022-09-30T17:36:16.306Z,2.25
2022-09-30T17:38:17.913Z,2.80
2022-09-30T17:40:38.226Z,2.40
2022-09-30T17:42:58.892Z,2.50
2022-09-30T17:45:00.727Z,2.55
2022-09-30T17:47:02.338Z,2.10
2022-09-30T17:49:03.955Z,2.70
2022-09-30T17:51:07.682Z,2.47
2022-09-30T17:53:09.347Z,2.40
2022-09-30T17:55:10.935Z,2.35
2022-09-30T17:57:12.514Z,2.60
2022-09-30T17:59:14.159Z,2.60
2022-09-30T18:01:17.558Z,2.60
2022-09-30T18:03:19.290Z,3.00
2022-09-30T18:05:21.510Z,2.60
2022-09-30T18:07:23.702Z,2.80
2022-09-30T18:09:25.485Z,2.33
2022-09-30T18:11:31.370Z,2.50
2022-09-30T18:13:33.268Z,2.58
2022-09-30T18:15:38.259Z,2.30
2022-09-30T18:17:39.932Z,2.50
2022-09-30T18:19:41.543Z,2.10
2022-09-30T18:21:43.145Z,2.28
2022-09-30T18:23:44.789Z,2.45
2022-09-30T18:25:49.506Z,1.98
2022-09-30T18:27:56.323Z,2.40
2022-09-30T18:29:57.991Z,2.67
2022-09-30T18:31:59.607Z,2.70
2022-09-30T18:34:01.759Z,2.33
2022-09-30T18:36:07.231Z,2.17
2022-09-30T18:38:09.027Z,2.40
2022-09-30T18:40:11.619Z,2.70
2022-09-30T18:42:13.249Z,2.25
2022-09-30T18:44:15.172Z,2.38
2022-09-30T18:46:19.581Z,2.72
2022-09-30T18:48:21.259Z,2.58
2022-09-30T18:50:24.757Z,2.40
2022-09-30T18:52:26.374Z,2.42
2022-09-30T18:54:27.969Z,2.40
2022-09-30T18:56:31.984Z,2.63
2022-09-30T18:58:33.923Z,2.28
2022-09-30T19:00:35.687Z,2.10
2022-09-30T19:02:40.018Z,2.22
2022-09-30T19:04:41.606Z,2.30
2022-09-30T19:06:44.619Z,2.83
2022-09-30T19:08:46.359Z,2.20
2022-09-30T19:10:48.062Z,2.25
2022-09-30T19:12:49.663Z,2.20
2022-09-30T19:14:51.741Z,2.30
2022-09-30T19:16:53.607Z,2.42
2022-09-30T19:18:55.367Z,1.80
2022-09-30T19:20:57.120Z,2.72
2022-09-30T19:22:58.708Z,2.67
2022-09-30T19:25:00.379Z,2.15
2022-09-30T19:27:02.256Z,2.10
2022-09-30T19:29:05.604Z,2.42
2022-09-30T19:31:08.637Z,2.47
2022-09-30T19:33:10.807Z,2.50
2022-09-30T19:35:13.465Z,2.40
2022-09-30T19:37:24.465Z,2.70
2022-09-30T19:39:41.192Z,2.55
2022-09-30T19:41:46.121Z,2.67
2022-09-30T19:43:50.867Z,2.50
2022-09-30T19:46:01.208Z,2.10
2022-09-30T19:48:03.121Z,2.50
2022-09-30T19:50:06.686Z,2.13
2022-09-30T19:52:17.391Z,2.15
2022-09-30T19:54:34.434Z,2.42
2022-09-30T19:56:41.600Z,2.50
2022-09-30T19:58:46.035Z,1.90
2022-09-30T20:00:54.410Z,2.28
2022-09-30T20:02:57.489Z,2.55
2022-09-30T20:05:00.456Z,2.25
2022-09-30T20:07:02.174Z,2.20
2022-09-30T20:09:06.725Z,2.30
2022-09-30T20:11:13.344Z,2.15
2022-09-30T20:13:15.241Z,1.90
2022-09-30T20:15:35.343Z,2.00
2022-09-30T20:17:36.989Z,2.20
2022-09-30T20:19:38.639Z,2.00
2022-09-30T20:21:43.052Z,2.28
2022-09-30T20:23:45.768Z,1.70
2022-09-30T20:25:47.669Z,1.90
2022-09-30T20:27:52.444Z,2.08
2022-09-30T20:29:54.404Z,1.98
2022-09-30T20:31:58.384Z,2.20
2022-09-30T20:34:00.490Z,1.95
2022-09-30T20:36:02.498Z,1.95
2022-09-30T20:38:04.505Z,2.38
2022-09-30T20:40:08.992Z,2.03
2022-09-30T20:42:10.617Z,2.35
2022-09-30T20:44:13.546Z,2.03
2022-09-30T20:46:15.278Z,2.10
2022-09-30T20:48:16.923Z,2.03
2022-09-30T20:50:34.738Z,1.80
2022-09-30T20:52:36.783Z,2.03
2022-09-30T20:54:38.596Z,2.13
2022-09-30T20:57:05.801Z,2.30
2022-09-30T20:59:02.228Z,1.80
2022-09-30T21:01:06.379Z,1.88
2022-09-30T21:03:10.447Z,1.88
2022-09-30T21:05:12.026Z,1.80
2022-09-30T21:07:13.609Z,1.60
2022-09-30T21:09:15.534Z,1.90
2022-09-30T21:11:18.259Z,1.92
2022-09-30T21:13:19.910Z,1.70
2022-09-30T21:15:22.055Z,1.70
2022-09-30T21:17:23.668Z,1.83
2022-09-30T21:19:25.336Z,1.90
2022-09-30T21:21:27.042Z,1.90
2022-09-30T21:23:30.452Z,1.88
2022-09-30T21:25:32.440Z,1.77
2022-09-30T21:27:34.272Z,1.70
2022-09-30T21:29:35.874Z,1.95
2022-09-30T21:31:38.017Z,1.65
2022-09-30T21:33:40.209Z,1.40
2022-09-30T21:35:41.801Z,1.55
2022-09-30T21:37:43.663Z,1.88
2022-09-30T21:39:48.047Z,1.80
2022-09-30T21:41:49.680Z,1.52
2022-09-30T21:43:51.267Z,1.60
2022-09-30T21:46:11.022Z,1.80
2022-09-30T21:48:13.216Z,1.80
2022-09-30T21:50:14.868Z,1.50
2022-09-30T21:52:16.467Z,1.83
2022-09-30T21:54:19.160Z,1.90
2022-09-30T21:56:20.811Z,1.90
2022-09-30T21:58:27.125Z,1.70
2022-09-30T22:00:28.966Z,1.80
2022-09-30T22:02:30.712Z,1.70
2022-09-30T22:04:32.348Z,1.70
2022-09-30T22:06:33.950Z,1.60
2022-09-30T22:08:40.684Z,1.70
2022-09-30T22:10:43.536Z,1.60
2022-09-30T22:12:46.256Z,1.60
2022-09-30T22:14:47.872Z,1.70
2022-09-30T22:16:49.473Z,1.50
2022-09-30T22:18:55.559Z,1.67
2022-09-30T22:21:02.333Z,1.77
2022-09-30T22:23:03.951Z,1.60
2022-09-30T22:25:06.330Z,1.42
2022-09-30T22:27:08.929Z,2.03
2022-09-30T22:29:12.198Z,1.55
2022-09-30T22:31:19.254Z,1.60
2022-09-30T22:33:41.360Z,1.77
2022-09-30T22:36:01.697Z,1.45
2022-09-30T22:38:15.897Z,1.50
2022-09-30T22:40:17.507Z,1.58
2022-09-30T22:42:19.192Z,1.70
2022-09-30T22:44:25.948Z,1.52
2022-09-30T22:46:29.237Z,1.35
2022-09-30T22:48:31.990Z,1.70
2022-09-30T22:50:35.630Z,1.60
2022-09-30T22:52:37.231Z,1.63
2022-09-30T22:54:38.895Z,1.45
2022-09-30T22:56:40.523Z,1.65
2022-09-30T22:58:42.115Z,1.38
2022-09-30T23:00:58.433Z,1.40
2022-09-30T23:03:00.064Z,1.50
2022-09-30T23:05:02.154Z,1.55
2022-09-30T23:07:06.439Z,1.60
2022-09-30T23:09:09.044Z,1.65
2022-09-30T23:11:12.682Z,1.33
2022-09-30T23:13:14.266Z,1.30
2022-09-30T23:15:15.916Z,1.35
2022-09-30T23:17:17.607Z,1.60
2022-09-30T23:19:19.799Z,1.70
2022-09-30T23:21:21.540Z,1.40
2022-09-30T23:23:23.375Z,1.40
2022-09-30T23:25:25.007Z,1.60
2022-09-30T23:27:26.622Z,1.50
2022-09-30T23:29:28.269Z,1.60
2022-09-30T23:31:30.381Z,1.50
2022-09-30T23:33:32.058Z,1.60
2022-09-30T23:35:33.672Z,1.48
2022-09-30T23:37:35.319Z,1.40
2022-09-30T23:39:36.919Z,1.60
2022-09-30T23:41:39.150Z,1.50
2022-09-30T23:43:45.694Z,1.40
2022-09-30T23:45:47.628Z,1.85
2022-09-30T23:47:49.350Z,1.40
2022-09-30T23:49:51.027Z,1.77
2022-09-30T23:51:52.641Z,1.70
2022-09-30T23:53:54.337Z,1.52
2022-09-30T23:56:02.690Z,1.40
2022-09-30T23:58:06.584Z,1.58
